Time;durP1;ratioP1;P1;durP2;ratioP2;P2;SDS_P1;SDS_P2;PMS_P1;PMS_P2;Temp;Humidity;BMP_temperature;BMP_pressure;BME280_temperature;BME280_humidity;BME280_pressure;Samples;Min_cycle;Max_cycle;Signal;HPM_P1;HPM_P2
2021/04/08 00:00:12;;;;;;;10.63;7.18;;;5.30;70.90;;;;;;5006317;28;20085;-56
2021/04/08 00:02:42;;;;;;;9.02;6.50;;;5.30;70.80;;;;;;5001733;28;20025;-54
2021/04/08 00:05:09;;;;;;;10.55;6.68;;;5.30;70.70;;;;;;4993687;28;20050;-55
2021/04/08 00:07:35;;;;;;;9.90;6.90;;;5.30;70.70;;;;;;4991496;28;20101;-57
2021/04/08 00:10:01;;;;;;;10.68;7.07;;;5.30;70.70;;;;;;4995679;28;20110;-53
2021/04/08 00:12:27;;;;;;;12.43;7.38;;;5.30;70.70;;;;;;5008809;28;20050;-56
2021/04/08 00:14:53;;;;;;;10.05;6.68;;;5.30;70.60;;;;;;5001485;28;20042;-57
2021/04/08 00:17:18;;;;;;;12.07;6.85;;;5.30;70.50;;;;;;4996311;28;20156;-55
2021/04/08 00:19:44;;;;;;;10.48;6.40;;;5.30;70.30;;;;;;4995856;28;20114;-56
2021/04/08 00:22:09;;;;;;;10.95;6.45;;;5.40;70.50;;;;;;4996960;28;20073;-55
2021/04/08 00:24:35;;;;;;;9.45;6.80;;;5.40;70.40;;;;;;5001155;28;20030;-56
2021/04/08 00:27:01;;;;;;;8.70;6.32;;;5.40;70.40;;;;;;5000602;28;20041;-54
2021/04/08 00:29:26;;;;;;;8.73;6.45;;;5.40;70.40;;;;;;4999413;28;20483;-55
2021/04/08 00:31:52;;;;;;;8.70;6.00;;;5.40;70.30;;;;;;4994862;28;20474;-55
2021/04/08 00:34:17;;;;;;;9.85;6.40;;;5.30;70.20;;;;;;4996606;28;20029;-54
2021/04/08 00:36:43;;;;;;;9.60;5.63;;;5.30;70.10;;;;;;5000583;28;20101;-56
2021/04/08 00:39:11;;;;;;;8.23;6.20;;;5.30;70.20;;;;;;5002849;28;20026;-56
2021/04/08 00:41:36;;;;;;;10.80;5.88;;;5.30;70.00;;;;;;4998396;28;20030;-56
2021/04/08 00:44:02;;;;;;;8.98;5.85;;;5.30;69.80;;;;;;4994644;28;20031;-55
2021/04/08 00:46:28;;;;;;;8.13;6.18;;;5.30;69.80;;;;;;4999737;28;20512;-57
2021/04/08 00:48:54;;;;;;;9.93;6.03;;;5.30;70.00;;;;;;5007480;28;20424;-57
2021/04/08 00:51:19;;;;;;;7.75;5.00;;;5.30;69.80;;;;;;4998267;28;20121;-55
2021/04/08 00:53:46;;;;;;;8.55;5.35;;;5.30;69.90;;;;;;4997406;28;20034;-56
2021/04/08 00:56:12;;;;;;;8.60;5.03;;;5.30;69.60;;;;;;4996255;28;20034;-56
2021/04/08 00:58:38;;;;;;;8.85;6.25;;;5.30;69.60;;;;;;4999649;28;20022;-56
2021/04/08 01:01:05;;;;;;;9.18;5.85;;;5.30;69.80;;;;;;4993635;28;20085;-56
2021/04/08 01:03:31;;;;;;;8.73;6.00;;;5.20;69.70;;;;;;4998287;28;20120;-55
2021/04/08 01:05:56;;;;;;;9.82;6.20;;;5.20;69.70;;;;;;4996034;28;20035;-55
2021/04/08 01:08:23;;;;;;;8.38;5.70;;;5.20;69.50;;;;;;4997747;28;20053;-57
2021/04/08 01:10:48;;;;;;;10.55;6.35;;;5.20;69.50;;;;;;5000775;28;20437;-58
2021/04/08 01:13:18;;;;;;;6.88;5.57;;;5.10;69.30;;;;;;5007841;28;20049;-56
2021/04/08 01:15:44;;;;;;;8.38;5.70;;;5.10;69.70;;;;;;5000092;28;20117;-56
2021/04/08 01:18:31;;;;;;;8.82;5.70;;;5.00;69.80;;;;;;4996211;28;20030;-55
2021/04/08 01:21:27;;;;;;;9.68;5.85;;;5.00;70.00;;;;;;4986223;28;20042;-56
2021/04/08 01:23:55;;;;;;;10.88;6.80;;;4.90;70.00;;;;;;4992066;28;20028;-54
2021/04/08 01:26:36;;;;;;;10.65;6.80;;;4.90;70.20;;;;;;5000660;28;20528;-55
2021/04/08 01:29:14;;;;;;;9.45;6.75;;;4.90;70.50;;;;;;4995079;28;20017;-55
2021/04/08 01:31:40;;;;;;;11.82;6.72;;;4.80;70.30;;;;;;4994398;28;20057;-55
2021/04/08 01:34:10;;;;;;;11.20;6.95;;;4.90;70.30;;;;;;4995926;28;20034;-53
2021/04/08 01:36:37;;;;;;;8.98;6.13;;;4.80;70.20;;;;;;5004268;28;20450;-56
2021/04/08 01:39:06;;;;;;;9.95;6.20;;;4.80;70.10;;;;;;4998641;28;20045;-56
2021/04/08 01:41:41;;;;;;;9.60;6.95;;;4.80;70.30;;;;;;4996550;28;20060;-56
2021/04/08 01:44:28;;;;;;;8.32;6.18;;;4.80;70.50;;;;;;4994750;28;20042;-55
2021/04/08 01:46:59;;;;;;;9.77;6.53;;;4.80;70.70;;;;;;5004296;28;20092;-55
2021/04/08 01:49:27;;;;;;;;;;;4.80;70.40;;;;;;5001169;28;20434;-54
2021/04/08 01:51:55;;;;;;;9.05;6.47;;;4.70;70.40;;;;;;4996621;28;19925;-56
2021/04/08 01:54:23;;;;;;;7.93;5.38;;;4.70;70.40;;;;;;4994099;28;20041;-56
2021/04/08 01:56:52;;;;;;;9.73;6.25;;;4.70;70.30;;;;;;4999967;28;20034;-53
2021/04/08 01:59:18;;;;;;;8.55;5.85;;;4.70;70.40;;;;;;4999360;28;20161;-55
2021/04/08 02:01:45;;;;;;;8.25;6.18;;;4.70;70.60;;;;;;5002081;28;20037;-54
2021/04/08 02:04:13;;;;;;;11.30;6.55;;;4.70;70.40;;;;;;4996672;28;20509;-55
2021/04/08 02:06:41;;;;;;;9.65;6.20;;;4.80;71.30;;;;;;4992398;28;20116;-56
2021/04/08 02:09:08;;;;;;;8.05;5.85;;;4.80;70.50;;;;;;4985049;28;20491;-55
2021/04/08 02:11:36;;;;;;;8.60;6.03;;;4.80;70.50;;;;;;5003516;28;20030;-56
2021/04/08 02:14:02;;;;;;;8.68;6.18;;;4.80;70.40;;;;;;4993331;28;20042;-56
2021/04/08 02:16:29;;;;;;;8.70;5.85;;;4.80;70.30;;;;;;5001776;28;20125;-55
2021/04/08 02:18:57;;;;;;;9.07;5.65;;;4.90;70.20;;;;;;4993719;28;20034;-56
2021/04/08 02:21:25;;;;;;;9.05;5.60;;;4.90;70.10;;;;;;4993260;28;20106;-56
2021/04/08 02:23:51;;;;;;;7.05;4.78;;;4.90;70.00;;;;;;4993913;28;20030;-55
2021/04/08 02:26:19;;;;;;;7.03;4.50;;;4.90;69.80;;;;;;4999498;28;20072;-52
2021/04/08 02:28:47;;;;;;;7.82;6.30;;;4.90;69.50;;;;;;4997498;28;20046;-56
2021/04/08 02:31:12;;;;;;;5.95;4.80;;;4.90;69.50;;;;;;4994838;28;20061;-56
2021/04/08 02:33:39;;;;;;;6.38;4.65;;;4.90;69.70;;;;;;4999379;28;20058;-56
2021/04/08 02:36:05;;;;;;;7.43;4.93;;;4.90;69.50;;;;;;4998659;28;20225;-56
2021/04/08 02:38:33;;;;;;;8.80;5.18;;;4.90;69.50;;;;;;4998056;28;20053;-57
2021/04/08 02:41:01;;;;;;;6.85;5.25;;;4.80;69.70;;;;;;4995861;28;20018;-56
2021/04/08 02:43:26;;;;;;;8.48;5.82;;;4.80;69.80;;;;;;4992407;28;20022;-55
2021/04/08 02:45:53;;;;;;;6.10;4.50;;;4.80;69.80;;;;;;4996670;28;20076;-55
2021/04/08 02:48:21;;;;;;;7.07;5.03;;;4.80;69.50;;;;;;4997990;28;20033;-55
2021/04/08 02:50:53;;;;;;;7.45;4.90;;;4.80;69.60;;;;;;5001778;28;20054;-55
2021/04/08 02:53:36;;;;;;;8.00;5.10;;;4.80;69.80;;;;;;4992837;28;20038;-56
2021/04/08 02:56:11;;;;;;;6.28;4.47;;;4.80;69.90;;;;;;4993749;28;20045;-55
2021/04/08 02:58:38;;;;;;;6.88;5.30;;;4.80;69.80;;;;;;4983059;28;20042;-56
2021/04/08 03:01:10;;;;;;;7.82;4.90;;;4.80;69.90;;;;;;4999309;28;20123;-54
2021/04/08 03:03:47;;;;;;;7.53;4.90;;;4.90;69.80;;;;;;4996651;28;20019;-55
2021/04/08 03:06:14;;;;;;;5.63;4.15;;;4.90;69.70;;;;;;4995896;28;20030;-56
2021/04/08 03:08:42;;;;;;;7.55;4.60;;;4.90;69.40;;;;;;4991769;28;21903;-55
2021/04/08 03:11:10;;;;;;;8.10;5.97;;;4.80;69.40;;;;;;4999613;28;20720;-53
2021/04/08 03:13:40;;;;;;;7.72;5.40;;;4.80;69.60;;;;;;5001141;28;20022;-55
2021/04/08 03:16:21;;;;;;;6.10;4.93;;;4.80;69.70;;;;;;4998845;28;20030;-56
2021/04/08 03:18:54;;;;;;;6.90;5.43;;;4.80;69.60;;;;;;4992775;28;20033;-57
2021/04/08 03:21:26;;;;;;;8.68;5.53;;;4.80;69.40;;;;;;4990613;28;20380;-55
2021/04/08 03:23:53;;;;;;;6.70;5.00;;;4.80;69.70;;;;;;4998768;28;20471;-55
2021/04/08 03:26:21;;;;;;;8.60;5.82;;;4.80;69.50;;;;;;4990500;28;20041;-56
2021/04/08 03:28:48;;;;;;;10.90;6.53;;;4.80;69.40;;;;;;4997811;28;21926;-55
2021/04/08 03:31:15;;;;;;;7.90;5.25;;;4.80;69.70;;;;;;4997364;28;20416;-55
2021/04/08 03:33:41;;;;;;;7.53;5.47;;;4.90;69.80;;;;;;5002857;28;20439;-56
2021/04/08 03:36:08;;;;;;;8.38;5.78;;;4.90;69.70;;;;;;5001579;28;20069;-56
2021/04/08 03:38:33;;;;;;;9.80;6.50;;;5.00;69.70;;;;;;5001200;28;20461;-56
2021/04/08 03:41:00;;;;;;;8.48;5.60;;;5.00;69.70;;;;;;4999735;28;20030;-54
2021/04/08 03:43:27;;;;;;;9.27;6.30;;;5.10;69.60;;;;;;4995262;28;20022;-56
2021/04/08 03:45:58;;;;;;;7.85;5.85;;;5.10;69.50;;;;;;5001142;28;20031;-55
2021/04/08 03:48:25;;;;;;;9.50;6.18;;;5.10;69.40;;;;;;4994564;28;20025;-54
2021/04/08 03:50:51;;;;;;;9.45;6.30;;;5.10;69.60;;;;;;4992163;28;20133;-57
2021/04/08 03:53:18;;;;;;;8.15;6.40;;;5.20;69.70;;;;;;4998555;28;20112;-55
2021/04/08 03:55:45;;;;;;;7.43;5.70;;;5.20;69.40;;;;;;4995674;28;20030;-56
2021/04/08 03:58:12;;;;;;;7.47;5.70;;;5.30;69.30;;;;;;5004521;28;20062;-54
2021/04/08 04:00:39;;;;;;;9.45;6.55;;;5.40;69.40;;;;;;5000788;28;20033;-56
2021/04/08 04:03:09;;;;;;;9.15;6.25;;;5.50;68.90;;;;;;5000065;28;20113;-52
2021/04/08 04:05:37;;;;;;;8.00;5.97;;;5.50;68.90;;;;;;4996884;28;20069;-56
2021/04/08 04:08:03;;;;;;;10.52;6.47;;;5.60;69.00;;;;;;4998625;28;20489;-56
2021/04/08 04:10:29;;;;;;;8.65;6.28;;;5.70;69.10;;;;;;4998775;28;20092;-56
2021/04/08 04:12:56;;;;;;;11.27;6.97;;;5.80;68.90;;;;;;4989548;28;20034;-57
2021/04/08 04:15:22;;;;;;;7.05;5.68;;;5.90;69.10;;;;;;5002077;28;20026;-57
2021/04/08 04:17:49;;;;;;;10.20;6.78;;;6.00;69.80;;;;;;4994180;28;20369;-56
2021/04/08 04:20:17;;;;;;;9.07;6.65;;;6.10;69.10;;;;;;4997506;28;20028;-57
2021/04/08 04:22:43;;;;;;;9.60;6.47;;;6.20;69.20;;;;;;4998136;28;20166;-54
2021/04/08 04:25:11;;;;;;;9.25;6.78;;;6.40;68.90;;;;;;4993952;28;20129;-56
2021/04/08 04:27:37;;;;;;;8.38;6.22;;;6.50;68.70;;;;;;4995178;28;20058;-55
2021/04/08 04:30:07;;;;;;;9.35;6.38;;;6.60;68.30;;;;;;5000110;28;20053;-57
2021/04/08 04:32:34;;;;;;;8.55;6.30;;;6.70;68.10;;;;;;5000110;28;20018;-56
2021/04/08 04:35:00;;;;;;;7.45;6.07;;;6.80;67.80;;;;;;4994812;28;20035;-56
2021/04/08 04:37:25;;;;;;;7.55;6.05;;;6.90;67.30;;;;;;4996055;28;20033;-56
2021/04/08 04:39:51;;;;;;;8.93;6.85;;;7.00;66.90;;;;;;4994333;28;20022;-57
2021/04/08 04:42:17;;;;;;;12.55;7.03;;;7.20;66.70;;;;;;4998996;28;20026;-55
2021/04/08 04:44:43;;;;;;;9.00;6.00;;;7.40;66.40;;;;;;4995616;28;20030;-57
2021/04/08 04:47:08;;;;;;;10.38;7.15;;;7.60;66.60;;;;;;5000660;28;20362;-56
2021/04/08 04:49:34;;;;;;;9.02;6.93;;;8.00;65.80;;;;;;4999705;28;20026;-56
2021/04/08 04:52:00;;;;;;;7.97;6.40;;;8.60;65.70;;;;;;4998332;28;20061;-57
2021/04/08 04:54:26;;;;;;;8.50;6.15;;;9.20;65.60;;;;;;4994710;28;20023;-57
2021/04/08 04:56:52;;;;;;;8.45;6.38;;;9.90;64.70;;;;;;5000709;28;20471;-55
2021/04/08 04:59:17;;;;;;;7.90;6.28;;;10.50;63.40;;;;;;4992244;28;20454;-57
2021/04/08 05:01:43;;;;;;;10.05;6.55;;;11.00;62.00;;;;;;4999226;28;20034;-57
2021/04/08 05:04:09;;;;;;;7.80;6.47;;;11.30;60.70;;;;;;4995647;28;20025;-55
2021/04/08 05:06:35;;;;;;;9.23;6.53;;;11.50;60.00;;;;;;4996890;28;20613;-56
2021/04/08 05:09:00;;;;;;;9.32;7.22;;;11.80;59.50;;;;;;4994607;28;20066;-56
2021/04/08 05:11:27;;;;;;;9.63;6.95;;;12.20;59.00;;;;;;5005859;28;20030;-56
2021/04/08 05:13:53;;;;;;;9.52;6.60;;;12.70;58.10;;;;;;5002232;28;20382;-56
2021/04/08 05:16:19;;;;;;;9.32;7.15;;;13.10;57.30;;;;;;5000023;28;20026;-57
2021/04/08 05:18:44;;;;;;;8.32;6.22;;;13.40;56.60;;;;;;4994647;28;20061;-52
2021/04/08 05:21:10;;;;;;;8.13;6.82;;;13.70;55.90;;;;;;4993601;28;20036;-56
2021/04/08 05:23:36;;;;;;;8.10;7.07;;;14.00;55.80;;;;;;4993987;28;20039;-57
2021/04/08 05:26:03;;;;;;;9.95;6.70;;;14.50;55.20;;;;;;4989940;28;20097;-57
2021/04/08 05:28:28;;;;;;;7.45;6.60;;;14.90;54.10;;;;;;4991655;28;20030;-56
2021/04/08 05:30:54;;;;;;;8.20;6.80;;;15.30;53.30;;;;;;4983108;28;20041;-57
2021/04/08 05:33:20;;;;;;;8.65;7.68;;;15.50;52.50;;;;;;4995833;28;20026;-56
2021/04/08 05:35:46;;;;;;;8.55;6.80;;;15.70;52.20;;;;;;4988153;28;20042;-56
2021/04/08 05:38:12;;;;;;;8.52;6.57;;;15.90;51.40;;;;;;4994431;28;20026;-55
2021/04/08 05:40:38;;;;;;;7.82;6.28;;;16.10;50.70;;;;;;4989766;28;20117;-57
2021/04/08 05:43:04;;;;;;;8.10;6.18;;;16.30;50.20;;;;;;4995549;28;20022;-53
2021/04/08 05:45:31;;;;;;;9.00;6.78;;;16.70;49.30;;;;;;4981437;28;20083;-54
2021/04/08 05:47:57;;;;;;;9.55;6.95;;;17.00;48.90;;;;;;4992843;28;20474;-58
2021/04/08 05:50:23;;;;;;;12.18;6.45;;;17.20;47.60;;;;;;4986447;28;20041;-57
2021/04/08 05:52:49;;;;;;;8.95;7.18;;;17.20;46.90;;;;;;4992667;28;20061;-57
2021/04/08 05:55:14;;;;;;;12.18;6.72;;;17.00;46.20;;;;;;4986087;28;20033;-54
2021/04/08 05:57:40;;;;;;;9.27;7.32;;;16.60;46.30;;;;;;4984739;28;20034;-55
2021/04/08 06:00:08;;;;;;;8.27;6.50;;;16.00;46.60;;;;;;4988044;28;20111;-54
2021/04/08 06:02:34;;;;;;;9.52;6.88;;;15.40;47.10;;;;;;4983493;28;20041;-52
2021/04/08 06:05:00;;;;;;;9.50;7.28;;;14.80;48.00;;;;;;4991330;28;20030;-55
2021/04/08 06:07:26;;;;;;;9.55;7.35;;;14.30;48.30;;;;;;4988567;28;20482;-52
2021/04/08 06:09:52;;;;;;;11.65;7.45;;;13.80;48.90;;;;;;4987451;28;20065;-53
2021/04/08 06:12:19;;;;;;;7.90;6.38;;;13.40;49.70;;;;;;4983848;28;20034;-54
2021/04/08 06:14:47;;;;;;;10.27;7.40;;;13.10;50.50;;;;;;4983446;28;20034;-55
2021/04/08 06:17:12;;;;;;;9.80;7.07;;;12.80;50.80;;;;;;4984784;28;20035;-56
2021/04/08 06:19:38;;;;;;;8.70;6.25;;;12.50;51.20;;;;;;4983286;28;20087;-54
2021/04/08 06:22:04;;;;;;;8.90;6.60;;;12.20;51.10;;;;;;4978358;28;20033;-57
2021/04/08 06:24:30;;;;;;;13.68;7.93;;;12.00;51.40;;;;;;4984326;28;20104;-56
2021/04/08 06:26:55;;;;;;;8.85;6.85;;;11.60;51.50;;;;;;4984937;28;20088;-56
2021/04/08 06:29:21;;;;;;;7.72;6.47;;;11.40;51.70;;;;;;4982035;28;20105;-56
2021/04/08 06:31:47;;;;;;;7.95;5.72;;;11.20;52.10;;;;;;4979841;28;20042;-56
2021/04/08 06:34:13;;;;;;;6.65;5.40;;;11.00;52.40;;;;;;4984723;28;20030;-54
2021/04/08 06:36:39;;;;;;;9.35;6.03;;;10.90;52.70;;;;;;4982001;28;20041;-57
2021/04/08 06:39:05;;;;;;;7.32;5.32;;;10.80;52.70;;;;;;4979681;28;20707;-56
2021/04/08 06:41:31;;;;;;;7.38;5.47;;;10.70;52.60;;;;;;4984231;28;20046;-55
2021/04/08 06:44:02;;;;;;;6.93;5.88;;;10.60;52.60;;;;;;4986091;28;20030;-57
2021/04/08 06:46:31;;;;;;;8.27;5.78;;;10.50;52.80;;;;;;4980745;28;20077;-57
2021/04/08 06:49:35;;;;;;;7.88;5.93;;;10.50;52.90;;;;;;4983735;28;20050;-56
2021/04/08 06:52:01;;;;;;;8.32;5.95;;;10.50;52.60;;;;;;4976969;28;20721;-57
2021/04/08 06:54:28;;;;;;;7.25;5.68;;;10.40;52.50;;;;;;4975868;28;20123;-56
2021/04/08 06:56:54;;;;;;;9.10;5.88;;;10.30;52.70;;;;;;4974983;28;20026;-56
2021/04/08 06:59:20;;;;;;;7.07;5.35;;;10.20;52.80;;;;;;4975098;28;20026;-54
2021/04/08 07:01:47;;;;;;;7.88;5.80;;;10.10;53.00;;;;;;4974660;28;20033;-55
2021/04/08 07:04:13;;;;;;;6.63;5.40;;;10.10;53.00;;;;;;4978787;28;20029;-54
2021/04/08 07:06:40;;;;;;;8.77;5.97;;;10.00;52.90;;;;;;4980911;28;20033;-55
2021/04/08 07:09:09;;;;;;;9.40;6.20;;;10.00;53.20;;;;;;4982094;28;20046;-55
2021/04/08 07:11:36;;;;;;;7.32;5.85;;;10.10;53.00;;;;;;4982414;28;20041;-55
2021/04/08 07:14:03;;;;;;;7.30;5.93;;;10.20;52.70;;;;;;4983419;28;20049;-55
2021/04/08 07:16:30;;;;;;;9.27;6.97;;;10.20;52.40;;;;;;4982217;28;20038;-56
2021/04/08 07:18:57;;;;;;;9.38;6.00;;;10.10;52.70;;;;;;4982988;28;20045;-55
2021/04/08 07:21:37;;;;;;;8.75;6.05;;;10.10;52.70;;;;;;4986192;28;20109;-55
2021/04/08 07:24:16;;;;;;;8.75;6.30;;;10.20;52.50;;;;;;4983481;28;20083;-54
2021/04/08 07:26:57;;;;;;;7.07;5.30;;;10.20;52.90;;;;;;4975340;28;20030;-56
2021/04/08 07:29:39;;;;;;;6.68;5.00;;;10.30;52.50;;;;;;4982076;28;20364;-55
2021/04/08 07:32:05;;;;;;;9.88;4.75;;;10.40;52.20;;;;;;4974286;28;20039;-56
2021/04/08 07:34:42;;;;;;;8.07;5.50;;;10.50;51.50;;;;;;4978254;28;20478;-57
2021/04/08 07:37:08;;;;;;;7.90;5.65;;;10.40;51.30;;;;;;4978746;28;20034;-56
2021/04/08 07:39:39;;;;;;;6.68;4.97;;;10.40;51.40;;;;;;4984841;28;20487;-56
2021/04/08 07:42:16;;;;;;;6.40;5.07;;;10.50;51.10;;;;;;4976667;28;20049;-57
2021/04/08 07:44:51;;;;;;;7.05;5.53;;;10.50;51.10;;;;;;4975394;28;20043;-57
2021/04/08 07:47:36;;;;;;;6.88;5.05;;;10.50;50.90;;;;;;4980726;28;20109;-55
2021/04/08 07:50:04;;;;;;;6.05;4.82;;;10.50;50.60;;;;;;4972892;28;20105;-56
2021/04/08 07:52:39;;;;;;;7.15;5.22;;;10.50;50.50;;;;;;4978414;28;20447;-56
2021/04/08 07:55:10;;;;;;;7.45;5.78;;;10.50;50.20;;;;;;4977930;28;20096;-56
2021/04/08 07:57:54;;;;;;;5.95;4.95;;;10.50;50.30;;;;;;4976761;28;20557;-56
2021/04/08 08:00:26;;;;;;;6.88;4.90;;;10.60;50.40;;;;;;4978157;28;20061;-55
2021/04/08 08:02:53;;;;;;;5.97;5.18;;;10.50;50.80;;;;;;4976204;28;20038;-57
2021/04/08 08:05:40;;;;;;;5.93;4.88;;;10.60;49.90;;;;;;4978885;28;20053;-57
2021/04/08 08:08:22;;;;;;;10.07;4.55;;;10.60;49.50;;;;;;4979232;28;20118;-57
2021/04/08 08:11:03;;;;;;;5.40;4.20;;;10.60;49.20;;;;;;4980281;28;20117;-53
2021/04/08 08:13:29;;;;;;;;;;;10.60;48.60;;;;;;4982438;28;20044;-53
2021/04/08 08:15:57;;;;;;;6.10;4.18;;;10.50;48.80;;;;;;4983196;28;19913;-52
2021/04/08 08:18:39;;;;;;;5.28;3.90;;;10.60;48.70;;;;;;4981092;28;20604;-54
2021/04/08 08:21:07;;;;;;;6.38;4.97;;;10.60;47.80;;;;;;4972283;28;20030;-52
2021/04/08 08:23:34;;;;;;;6.53;4.32;;;10.50;47.80;;;;;;4980182;28;20410;-49
2021/04/08 08:26:31;;;;;;;4.53;3.83;;;10.50;48.00;;;;;;4978662;28;20018;-51
2021/04/08 08:28:58;;;;;;;4.90;4.28;;;10.60;46.80;;;;;;4973233;28;20029;-52
2021/04/08 08:31:56;;;;;;;5.68;4.10;;;10.50;46.50;;;;;;4975466;28;20041;-55
2021/04/08 08:34:32;;;;;;;5.97;4.20;;;10.40;45.70;;;;;;4978761;28;20049;-53
2021/04/08 08:37:01;;;;;;;6.32;4.07;;;10.30;46.20;;;;;;4972656;28;20038;-51
2021/04/08 08:39:34;;;;;;;4.78;4.05;;;10.30;46.40;;;;;;4979314;28;20034;-54
2021/04/08 08:42:03;;;;;;;5.38;4.13;;;10.30;46.60;;;;;;4975953;28;20031;-53
2021/04/08 08:44:29;;;;;;;4.47;3.90;;;10.40;46.60;;;;;;4979760;28;20034;-52
2021/04/08 08:47:15;;;;;;;6.50;4.43;;;10.40;46.80;;;;;;4980912;28;20049;-50
2021/04/08 08:50:03;;;;;;;4.80;4.13;;;10.50;46.50;;;;;;4974355;28;20023;-55
2021/04/08 08:52:37;;;;;;;5.53;4.30;;;10.60;46.40;;;;;;4968978;28;20085;-49
2021/04/08 08:55:09;;;;;;;5.60;4.55;;;10.70;46.00;;;;;;4976293;28;20156;-54
2021/04/08 08:57:40;;;;;;;6.78;4.53;;;10.80;46.00;;;;;;4980959;28;20033;-52
2021/04/08 09:00:08;;;;;;;6.35;4.47;;;10.80;46.20;;;;;;4975597;28;20042;-55
2021/04/08 09:02:38;;;;;;;7.75;5.10;;;10.80;46.30;;;;;;4977555;28;20040;-58
2021/04/08 09:05:10;;;;;;;7.40;4.80;;;11.00;46.00;;;;;;4971966;28;20069;-56
2021/04/08 09:07:38;;;;;;;5.95;4.68;;;11.00;45.70;;;;;;4975402;28;20947;-55
2021/04/08 09:10:04;;;;;;;6.38;4.93;;;11.10;45.40;;;;;;4975185;28;20030;-51
2021/04/08 09:12:32;;;;;;;6.70;5.10;;;11.00;45.30;;;;;;4972006;28;20057;-59
2021/04/08 09:14:58;;;;;;;6.45;4.70;;;11.00;45.30;;;;;;4973589;28;20477;-56
2021/04/08 09:17:45;;;;;;;5.47;4.28;;;11.00;45.20;;;;;;4972069;28;20038;-55
2021/04/08 09:20:18;;;;;;;5.95;4.47;;;11.00;44.60;;;;;;4966369;28;20530;-59
2021/04/08 09:22:56;;;;;;;6.72;4.88;;;11.00;44.80;;;;;;4975296;28;20049;-56
2021/04/08 09:25:31;;;;;;;5.82;4.30;;;11.10;44.70;;;;;;4973661;28;20035;-57
2021/04/08 09:28:04;;;;;;;5.88;4.80;;;11.10;44.50;;;;;;4978342;28;20685;-57
2021/04/08 09:31:07;;;;;;;6.50;4.80;;;11.10;44.60;;;;;;4973002;28;20033;-57
2021/04/08 09:33:42;;;;;;;5.60;4.43;;;11.00;44.50;;;;;;4973772;28;20128;-58
2021/04/08 09:36:23;;;;;;;5.80;4.55;;;11.10;44.40;;;;;;4974223;28;20030;-58
2021/04/08 09:38:55;;;;;;;5.57;4.65;;;11.00;44.10;;;;;;4979175;28;20161;-58
2021/04/08 09:41:41;;;;;;;6.25;4.72;;;10.90;44.60;;;;;;4975732;28;20038;-55
2021/04/08 09:44:08;;;;;;;7.22;5.45;;;10.80;44.80;;;;;;4979669;28;20026;-58
2021/04/08 09:46:40;;;;;;;7.80;5.90;;;10.80;45.10;;;;;;4977452;28;20109;-56
2021/04/08 09:49:06;;;;;;;7.35;5.72;;;10.80;45.40;;;;;;4981653;28;21007;-57
2021/04/08 09:51:33;;;;;;;6.30;5.55;;;10.80;45.40;;;;;;4977732;28;20133;-56
2021/04/08 09:54:02;;;;;;;8.63;6.80;;;10.90;45.50;;;;;;4982666;28;20495;-54
2021/04/08 09:56:40;;;;;;;7.68;6.00;;;11.00;45.20;;;;;;4976060;28;20058;-56
2021/04/08 09:59:06;;;;;;;7.72;5.78;;;10.90;45.00;;;;;;4974074;28;20048;-59
2021/04/08 10:01:32;;;;;;;7.53;4.57;;;10.90;45.00;;;;;;4975126;28;20026;-58
2021/04/08 10:04:13;;;;;;;5.15;4.50;;;10.90;45.20;;;;;;4972777;28;20126;-58
2021/04/08 10:06:39;;;;;;;7.82;4.93;;;10.90;45.00;;;;;;4970272;28;20478;-58
2021/04/08 10:09:16;;;;;;;5.97;4.50;;;10.90;45.10;;;;;;4973002;28;20034;-59
2021/04/08 10:11:43;;;;;;;7.30;5.45;;;10.90;45.40;;;;;;4972873;28;20142;-58
2021/04/08 10:14:16;;;;;;;5.78;5.18;;;10.90;45.60;;;;;;4976171;28;20499;-58
2021/04/08 10:16:42;;;;;;;8.23;5.32;;;11.00;45.40;;;;;;4980498;28;20034;-58
2021/04/08 10:19:08;;;;;;;6.03;5.13;;;11.10;45.80;;;;;;4977077;28;20031;-58
2021/04/08 10:21:34;;;;;;;6.53;5.10;;;11.10;45.30;;;;;;4980566;28;20029;-60
2021/04/08 10:23:59;;;;;;;9.15;5.13;;;11.20;45.00;;;;;;4979200;28;20109;-59
2021/04/08 10:26:32;;;;;;;7.32;6.00;;;11.20;44.70;;;;;;4976707;28;20125;-59
2021/04/08 10:29:00;;;;;;;8.38;5.88;;;11.30;44.70;;;;;;4974543;28;20117;-60
2021/04/08 10:31:31;;;;;;;8.45;6.25;;;11.30;44.80;;;;;;4975684;28;20026;-59
2021/04/08 10:34:13;;;;;;;8.13;5.63;;;11.40;45.10;;;;;;4980459;28;20030;-57
2021/04/08 10:36:54;;;;;;;9.32;6.20;;;11.50;45.20;;;;;;4982050;28;21593;-59
2021/04/08 10:39:20;;;;;;;6.57;5.53;;;11.50;45.60;;;;;;4980738;28;20034;-58
2021/04/08 10:42:10;;;;;;;5.85;5.00;;;11.50;45.40;;;;;;4984294;28;20041;-59
2021/04/08 10:44:41;;;;;;;6.35;5.68;;;11.60;45.10;;;;;;5012480;28;20441;-59
2021/04/08 10:47:06;;;;;;;6.90;5.53;;;11.50;45.40;;;;;;4980006;28;20030;-58
2021/04/08 10:49:47;;;;;;;6.97;5.60;;;11.50;45.50;;;;;;4977648;28;20092;-59
2021/04/08 10:52:16;;;;;;;8.13;4.95;;;11.50;45.70;;;;;;4978512;28;20056;-59
2021/04/08 10:54:44;;;;;;;5.88;5.22;;;11.50;45.30;;;;;;4983783;28;20042;-59
2021/04/08 10:57:10;;;;;;;7.00;4.97;;;11.40;45.50;;;;;;4981933;28;20041;-61
2021/04/08 10:59:40;;;;;;;5.53;4.90;;;11.30;45.90;;;;;;4981219;28;20061;-59
2021/04/08 11:02:25;;;;;;;7.28;5.18;;;11.40;46.00;;;;;;4980820;28;20066;-58
2021/04/08 11:04:53;;;;;;;6.03;4.63;;;11.50;45.70;;;;;;4980106;28;20100;-57
2021/04/08 11:07:20;;;;;;;5.95;4.50;;;11.60;45.60;;;;;;4979371;28;20062;-55
2021/04/08 11:09:46;;;;;;;6.13;4.88;;;11.60;45.50;;;;;;4975590;28;20038;-54
2021/04/08 11:12:26;;;;;;;4.65;4.18;;;11.70;45.10;;;;;;4980559;28;20430;-53
2021/04/08 11:14:57;;;;;;;5.75;5.15;;;11.70;45.20;;;;;;4975505;28;20457;-60
2021/04/08 11:17:26;;;;;;;5.82;4.72;;;11.60;45.90;;;;;;4981838;28;20041;-56
2021/04/08 11:19:54;;;;;;;5.72;4.60;;;11.50;46.30;;;;;;4986342;28;20142;-58
2021/04/08 11:22:23;;;;;;;7.07;4.20;;;11.50;46.50;;;;;;4982646;28;20954;-52
2021/04/08 11:24:51;;;;;;;6.53;4.47;;;11.50;46.30;;;;;;4988953;28;20033;-54
2021/04/08 11:27:36;;;;;;;6.35;4.85;;;11.40;45.80;;;;;;4986191;28;20038;-56
2021/04/08 11:30:07;;;;;;;4.90;3.67;;;11.40;46.00;;;;;;4983454;28;20077;-55
2021/04/08 11:32:50;;;;;;;3.97;3.38;;;11.40;45.60;;;;;;4979226;28;20073;-53
2021/04/08 11:35:45;;;;;;;19.90;5.43;;;11.30;44.20;;;;;;4983036;28;20378;-57
2021/04/08 11:38:23;;;;;;;5.15;3.80;;;11.20;44.70;;;;;;4986528;28;20134;-55
2021/04/08 11:41:07;;;;;;;4.30;3.38;;;10.90;45.60;;;;;;4984307;28;20721;-56
2021/04/08 11:43:42;;;;;;;5.05;3.25;;;10.60;47.00;;;;;;4979568;28;20042;-57
2021/04/08 11:46:29;;;;;;;4.32;3.03;;;10.40;48.00;;;;;;4987165;28;20476;-54
2021/04/08 11:48:55;;;;;;;3.70;3.10;;;10.20;48.80;;;;;;4983076;28;20096;-53
2021/04/08 11:51:30;;;;;;;3.58;2.83;;;10.00;49.00;;;;;;4982542;28;20054;-56
2021/04/08 11:54:07;;;;;;;4.20;3.33;;;9.90;49.70;;;;;;4984921;28;20120;-54
2021/04/08 11:56:37;;;;;;;4.63;3.70;;;9.80;49.60;;;;;;4987795;28;20062;-54
2021/04/08 11:59:05;;;;;;;8.07;4.47;;;9.70;49.80;;;;;;4980860;28;20033;-54
2021/04/08 12:01:34;;;;;;;4.63;3.33;;;9.70;49.60;;;;;;4986628;28;20479;-55
2021/04/08 12:04:13;;;;;;;4.38;3.30;;;9.80;49.60;;;;;;4979843;28;20096;-56
2021/04/08 12:06:41;;;;;;;3.65;2.72;;;9.80;49.20;;;;;;4986531;28;20034;-53
2021/04/08 12:09:07;;;;;;;3.17;2.42;;;9.90;49.20;;;;;;4986145;28;20031;-51
2021/04/08 12:11:55;;;;;;;4.32;2.83;;;10.00;48.70;;;;;;4979098;28;20045;-55
2021/04/08 12:14:22;;;;;;;4.43;2.78;;;10.00;48.60;;;;;;4982960;28;20113;-51
2021/04/08 12:17:06;;;;;;;4.60;2.90;;;10.10;48.80;;;;;;4984217;28;20065;-51
2021/04/08 12:19:33;;;;;;;2.92;2.40;;;10.10;48.80;;;;;;4983586;28;20038;-54
2021/04/08 12:22:11;;;;;;;4.15;2.75;;;10.20;48.80;;;;;;4986300;28;20561;-56
2021/04/08 12:24:38;;;;;;;4.05;2.78;;;10.20;48.60;;;;;;4980895;28;20506;-52
2021/04/08 12:27:18;;;;;;;3.60;2.90;;;10.20;48.50;;;;;;4980904;28;20061;-50
2021/04/08 12:29:44;;;;;;;5.70;3.60;;;10.20;48.60;;;;;;4983953;28;20065;-53
2021/04/08 12:32:10;;;;;;;4.35;3.30;;;10.10;48.80;;;;;;4982036;28;20038;-55
2021/04/08 12:34:35;;;;;;;4.93;3.33;;;10.10;49.10;;;;;;4982389;28;20062;-52
2021/04/08 12:37:01;;;;;;;5.55;3.50;;;10.10;49.20;;;;;;4987440;28;20041;-53
2021/04/08 12:39:27;;;;;;;4.70;3.35;;;10.10;49.60;;;;;;4984785;28;20049;-53
2021/04/08 12:41:54;;;;;;;4.97;3.10;;;10.20;49.60;;;;;;4986564;28;20058;-54
2021/04/08 12:44:19;;;;;;;6.10;3.53;;;10.30;49.50;;;;;;4978477;28;20030;-56
2021/04/08 12:46:45;;;;;;;5.50;3.13;;;10.40;49.50;;;;;;4982772;28;20036;-52
2021/04/08 12:49:12;;;;;;;5.47;3.30;;;10.40;49.40;;;;;;4978967;28;20050;-56
2021/04/08 12:51:38;;;;;;;4.60;3.70;;;10.40;49.40;;;;;;4985985;28;20054;-55
2021/04/08 12:54:04;;;;;;;5.75;4.03;;;10.50;49.60;;;;;;4989567;28;20085;-55
2021/04/08 12:56:30;;;;;;;4.05;3.55;;;10.50;49.70;;;;;;4986584;28;20038;-53
2021/04/08 12:58:55;;;;;;;4.93;4.03;;;10.60;49.90;;;;;;4988066;28;20478;-51
2021/04/08 13:01:21;;;;;;;5.47;4.10;;;10.70;50.00;;;;;;4979345;28;20049;-56
2021/04/08 13:03:47;;;;;;;5.78;3.90;;;10.70;50.00;;;;;;4986183;28;20030;-51